sensor_id;sensor_type;location;lat;lon;timestamp;P1;durP1;ratioP1;P2;durP2;ratioP2
45909;SDS011;31622;55.416;37.840;2024-01-11T00:02:18;1.90;;;1.20;;
45909;SDS011;31622;55.416;37.840;2024-01-11T00:04:44;1.60;;;1.10;;
45909;SDS011;31622;55.416;37.840;2024-01-11T00:07:10;1.67;;;1.10;;
45909;SDS011;31622;55.416;37.840;2024-01-11T00:09:39;2.03;;;1.00;;
45909;SDS011;31622;55.416;37.840;2024-01-11T00:12:06;1.77;;;1.20;;
45909;SDS011;31622;55.416;37.840;2024-01-11T00:14:32;1.85;;;1.27;;
45909;SDS011;31622;55.416;37.840;2024-01-11T00:16:58;2.05;;;1.10;;
45909;SDS011;31622;55.416;37.840;2024-01-11T00:19:24;2.35;;;1.40;;
45909;SDS011;31622;55.416;37.840;2024-01-11T00:21:49;2.10;;;1.40;;
45909;SDS011;31622;55.416;37.840;2024-01-11T00:24:15;1.63;;;1.13;;
45909;SDS011;31622;55.416;37.840;2024-01-11T00:26:41;1.70;;;1.13;;
45909;SDS011;31622;55.416;37.840;2024-01-11T00:29:07;1.80;;;1.23;;
45909;SDS011;31622;55.416;37.840;2024-01-11T00:31:33;1.80;;;1.20;;
45909;SDS011;31622;55.416;37.840;2024-01-11T00:33:59;1.77;;;1.17;;
45909;SDS011;31622;55.416;37.840;2024-01-11T00:36:25;2.65;;;1.08;;
45909;SDS011;31622;55.416;37.840;2024-01-11T00:38:50;2.38;;;1.30;;
45909;SDS011;31622;55.416;37.840;2024-01-11T00:41:16;1.75;;;1.00;;
45909;SDS011;31622;55.416;37.840;2024-01-11T00:43:42;5.10;;;1.55;;
45909;SDS011;31622;55.416;37.840;2024-01-11T00:46:08;1.60;;;1.10;;
45909;SDS011;31622;55.416;37.840;2024-01-11T00:48:33;1.60;;;1.10;;
45909;SDS011;31622;55.416;37.840;2024-01-11T00:50:59;1.60;;;1.20;;
45909;SDS011;31622;55.416;37.840;2024-01-11T00:53:25;1.75;;;1.10;;
45909;SDS011;31622;55.416;37.840;2024-01-11T00:55:56;1.85;;;1.17;;
45909;SDS011;31622;55.416;37.840;2024-01-11T00:58:22;1.70;;;1.10;;
45909;SDS011;31622;55.416;37.840;2024-01-11T01:00:48;1.95;;;1.00;;
45909;SDS011;31622;55.416;37.840;2024-01-11T01:03:15;2.05;;;1.27;;
45909;SDS011;31622;55.416;37.840;2024-01-11T01:05:41;1.90;;;1.10;;
45909;SDS011;31622;55.416;37.840;2024-01-11T01:08:07;1.75;;;1.17;;
45909;SDS011;31622;55.416;37.840;2024-01-11T01:10:33;1.63;;;1.17;;
45909;SDS011;31622;55.416;37.840;2024-01-11T01:12:58;1.88;;;0.85;;
45909;SDS011;31622;55.416;37.840;2024-01-11T01:15:24;1.40;;;1.00;;
45909;SDS011;31622;55.416;37.840;2024-01-11T01:17:50;2.10;;;0.95;;
45909;SDS011;31622;55.416;37.840;2024-01-11T01:20:16;1.55;;;0.98;;
45909;SDS011;31622;55.416;37.840;2024-01-11T01:22:41;1.55;;;1.00;;
45909;SDS011;31622;55.416;37.840;2024-01-11T01:25:07;1.50;;;1.00;;
45909;SDS011;31622;55.416;37.840;2024-01-11T01:27:33;1.60;;;1.10;;
45909;SDS011;31622;55.416;37.840;2024-01-11T01:29:59;1.70;;;1.00;;
45909;SDS011;31622;55.416;37.840;2024-01-11T01:32:24;1.40;;;0.98;;
45909;SDS011;31622;55.416;37.840;2024-01-11T01:34:50;1.95;;;1.10;;
45909;SDS011;31622;55.416;37.840;2024-01-11T01:37:16;39.22;;;8.55;;
45909;SDS011;31622;55.416;37.840;2024-01-11T01:39:41;6.78;;;1.50;;
45909;SDS011;31622;55.416;37.840;2024-01-11T01:42:07;6.25;;;1.02;;
45909;SDS011;31622;55.416;37.840;2024-01-11T01:44:33;2.10;;;1.10;;
45909;SDS011;31622;55.416;37.840;2024-01-11T01:46:59;2.58;;;1.10;;
45909;SDS011;31622;55.416;37.840;2024-01-11T01:49:26;2.97;;;0.98;;
45909;SDS011;31622;55.416;37.840;2024-01-11T01:51:52;17.60;;;2.10;;
45909;SDS011;31622;55.416;37.840;2024-01-11T01:54:19;3.63;;;1.20;;
45909;SDS011;31622;55.416;37.840;2024-01-11T01:56:45;8.55;;;2.00;;
45909;SDS011;31622;55.416;37.840;2024-01-11T01:59:11;8.27;;;1.50;;
45909;SDS011;31622;55.416;37.840;2024-01-11T02:01:38;3.00;;;1.40;;
45909;SDS011;31622;55.416;37.840;2024-01-11T02:04:04;7.43;;;1.08;;
45909;SDS011;31622;55.416;37.840;2024-01-11T02:06:30;5.38;;;1.20;;
45909;SDS011;31622;55.416;37.840;2024-01-11T02:08:58;6.47;;;1.10;;
45909;SDS011;31622;55.416;37.840;2024-01-11T02:11:24;1.42;;;0.90;;
45909;SDS011;31622;55.416;37.840;2024-01-11T02:13:50;4.05;;;1.13;;
45909;SDS011;31622;55.416;37.840;2024-01-11T02:16:16;1.33;;;0.90;;
45909;SDS011;31622;55.416;37.840;2024-01-11T02:18:41;2.25;;;0.80;;
45909;SDS011;31622;55.416;37.840;2024-01-11T02:21:08;2.80;;;1.05;;
45909;SDS011;31622;55.416;37.840;2024-01-11T02:23:36;2.67;;;0.98;;
45909;SDS011;31622;55.416;37.840;2024-01-11T02:26:06;2.10;;;1.10;;
45909;SDS011;31622;55.416;37.840;2024-01-11T02:28:32;10.25;;;1.30;;
45909;SDS011;31622;55.416;37.840;2024-01-11T02:30:58;2.65;;;0.70;;
45909;SDS011;31622;55.416;37.840;2024-01-11T02:33:23;1.80;;;1.00;;
45909;SDS011;31622;55.416;37.840;2024-01-11T02:35:49;1.77;;;0.90;;
45909;SDS011;31622;55.416;37.840;2024-01-11T02:38:15;1.38;;;0.77;;
45909;SDS011;31622;55.416;37.840;2024-01-11T02:40:41;2.47;;;1.00;;
45909;SDS011;31622;55.416;37.840;2024-01-11T02:43:08;4.20;;;1.10;;
45909;SDS011;31622;55.416;37.840;2024-01-11T02:45:34;1.73;;;0.80;;
45909;SDS011;31622;55.416;37.840;2024-01-11T02:48:00;1.60;;;0.90;;
45909;SDS011;31622;55.416;37.840;2024-01-11T02:50:26;1.88;;;1.08;;
45909;SDS011;31622;55.416;37.840;2024-01-11T02:52:51;1.05;;;0.75;;
45909;SDS011;31622;55.416;37.840;2024-01-11T02:55:17;1.38;;;0.82;;
45909;SDS011;31622;55.416;37.840;2024-01-11T02:57:43;2.05;;;0.90;;
45909;SDS011;31622;55.416;37.840;2024-01-11T03:00:09;1.45;;;0.80;;
45909;SDS011;31622;55.416;37.840;2024-01-11T03:02:36;1.30;;;1.00;;
45909;SDS011;31622;55.416;37.840;2024-01-11T03:05:03;1.38;;;0.82;;
45909;SDS011;31622;55.416;37.840;2024-01-11T03:07:29;1.95;;;1.00;;
45909;SDS011;31622;55.416;37.840;2024-01-11T03:09:55;1.52;;;0.75;;
45909;SDS011;31622;55.416;37.840;2024-01-11T03:12:21;3.25;;;0.95;;
45909;SDS011;31622;55.416;37.840;2024-01-11T03:14:47;1.30;;;0.90;;
45909;SDS011;31622;55.416;37.840;2024-01-11T03:17:13;1.70;;;0.90;;
45909;SDS011;31622;55.416;37.840;2024-01-11T03:19:39;2.03;;;0.90;;
45909;SDS011;31622;55.416;37.840;2024-01-11T03:22:06;1.30;;;0.80;;
45909;SDS011;31622;55.416;37.840;2024-01-11T03:24:32;1.70;;;1.05;;
45909;SDS011;31622;55.416;37.840;2024-01-11T03:26:58;1.77;;;1.00;;
45909;SDS011;31622;55.416;37.840;2024-01-11T03:29:24;2.45;;;1.00;;
45909;SDS011;31622;55.416;37.840;2024-01-11T03:31:49;1.90;;;1.02;;
45909;SDS011;31622;55.416;37.840;2024-01-11T03:34:15;2.30;;;0.95;;
45909;SDS011;31622;55.416;37.840;2024-01-11T03:36:42;1.45;;;0.90;;
45909;SDS011;31622;55.416;37.840;2024-01-11T03:39:07;2.30;;;1.02;;
45909;SDS011;31622;55.416;37.840;2024-01-11T03:41:33;3.15;;;1.10;;
45909;SDS011;31622;55.416;37.840;2024-01-11T03:43:59;2.53;;;1.17;;
45909;SDS011;31622;55.416;37.840;2024-01-11T03:46:24;2.30;;;1.05;;
45909;SDS011;31622;55.416;37.840;2024-01-11T03:48:50;2.20;;;1.23;;
45909;SDS011;31622;55.416;37.840;2024-01-11T03:51:16;1.60;;;0.93;;
45909;SDS011;31622;55.416;37.840;2024-01-11T03:53:41;2.58;;;1.20;;
45909;SDS011;31622;55.416;37.840;2024-01-11T03:56:07;2.03;;;1.10;;
45909;SDS011;31622;55.416;37.840;2024-01-11T03:58:35;2.38;;;1.17;;
45909;SDS011;31622;55.416;37.840;2024-01-11T04:01:01;2.08;;;0.90;;
45909;SDS011;31622;55.416;37.840;2024-01-11T04:03:27;2.55;;;1.23;;
45909;SDS011;31622;55.416;37.840;2024-01-11T04:05:52;2.33;;;1.05;;
45909;SDS011;31622;55.416;37.840;2024-01-11T04:08:18;4.75;;;1.30;;
45909;SDS011;31622;55.416;37.840;2024-01-11T04:10:44;3.55;;;0.90;;
45909;SDS011;31622;55.416;37.840;2024-01-11T04:13:10;1.80;;;1.00;;
45909;SDS011;31622;55.416;37.840;2024-01-11T04:15:36;3.55;;;1.35;;
45909;SDS011;31622;55.416;37.840;2024-01-11T04:18:02;3.08;;;1.20;;
45909;SDS011;31622;55.416;37.840;2024-01-11T04:20:27;2.22;;;0.93;;
45909;SDS011;31622;55.416;37.840;2024-01-11T04:22:53;2.00;;;1.20;;
45909;SDS011;31622;55.416;37.840;2024-01-11T04:25:19;3.10;;;1.23;;
45909;SDS011;31622;55.416;37.840;2024-01-11T04:27:45;6.88;;;1.40;;
45909;SDS011;31622;55.416;37.840;2024-01-11T04:30:13;2.10;;;1.10;;
45909;SDS011;31622;55.416;37.840;2024-01-11T04:32:38;4.07;;;1.52;;
45909;SDS011;31622;55.416;37.840;2024-01-11T04:35:04;5.80;;;2.33;;
45909;SDS011;31622;55.416;37.840;2024-01-11T04:37:30;5.70;;;1.95;;
45909;SDS011;31622;55.416;37.840;2024-01-11T04:39:57;5.50;;;1.77;;
45909;SDS011;31622;55.416;37.840;2024-01-11T04:42:26;6.85;;;2.35;;
45909;SDS011;31622;55.416;37.840;2024-01-11T04:44:53;5.88;;;2.30;;
45909;SDS011;31622;55.416;37.840;2024-01-11T04:47:19;4.63;;;1.85;;
45909;SDS011;31622;55.416;37.840;2024-01-11T04:49:45;5.90;;;2.10;;
45909;SDS011;31622;55.416;37.840;2024-01-11T04:52:10;4.85;;;1.55;;
45909;SDS011;31622;55.416;37.840;2024-01-11T04:54:36;4.97;;;1.88;;
45909;SDS011;31622;55.416;37.840;2024-01-11T04:57:03;6.40;;;1.92;;
45909;SDS011;31622;55.416;37.840;2024-01-11T04:59:29;6.63;;;2.08;;
45909;SDS011;31622;55.416;37.840;2024-01-11T05:01:55;6.53;;;2.08;;
45909;SDS011;31622;55.416;37.840;2024-01-11T05:04:21;5.28;;;1.77;;
45909;SDS011;31622;55.416;37.840;2024-01-11T05:06:47;7.13;;;2.00;;
45909;SDS011;31622;55.416;37.840;2024-01-11T05:09:13;4.28;;;1.58;;
45909;SDS011;31622;55.416;37.840;2024-01-11T05:11:40;6.38;;;1.90;;
45909;SDS011;31622;55.416;37.840;2024-01-11T05:14:07;4.85;;;1.95;;
45909;SDS011;31622;55.416;37.840;2024-01-11T05:16:32;5.90;;;1.67;;
45909;SDS011;31622;55.416;37.840;2024-01-11T05:19:00;5.05;;;1.55;;
45909;SDS011;31622;55.416;37.840;2024-01-11T05:21:26;5.15;;;1.85;;
45909;SDS011;31622;55.416;37.840;2024-01-11T05:23:52;5.72;;;1.70;;
45909;SDS011;31622;55.416;37.840;2024-01-11T05:26:18;5.75;;;1.90;;
45909;SDS011;31622;55.416;37.840;2024-01-11T05:28:44;7.47;;;1.70;;
45909;SDS011;31622;55.416;37.840;2024-01-11T05:31:10;6.65;;;1.90;;
45909;SDS011;31622;55.416;37.840;2024-01-11T05:33:41;4.90;;;1.98;;
45909;SDS011;31622;55.416;37.840;2024-01-11T05:36:07;4.15;;;2.00;;
45909;SDS011;31622;55.416;37.840;2024-01-11T05:38:33;5.80;;;2.05;;
45909;SDS011;31622;55.416;37.840;2024-01-11T05:41:00;4.30;;;2.17;;
45909;SDS011;31622;55.416;37.840;2024-01-11T05:43:25;4.93;;;2.00;;
45909;SDS011;31622;55.416;37.840;2024-01-11T05:45:51;3.35;;;1.75;;
45909;SDS011;31622;55.416;37.840;2024-01-11T05:48:17;3.55;;;1.90;;
45909;SDS011;31622;55.416;37.840;2024-01-11T05:50:43;3.78;;;1.95;;
45909;SDS011;31622;55.416;37.840;2024-01-11T05:53:09;3.50;;;1.60;;
45909;SDS011;31622;55.416;37.840;2024-01-11T05:55:36;5.40;;;2.08;;
45909;SDS011;31622;55.416;37.840;2024-01-11T05:58:02;5.22;;;1.90;;
45909;SDS011;31622;55.416;37.840;2024-01-11T06:00:27;4.93;;;2.22;;
45909;SDS011;31622;55.416;37.840;2024-01-11T06:02:53;5.25;;;1.92;;
45909;SDS011;31622;55.416;37.840;2024-01-11T06:05:19;5.47;;;1.75;;
45909;SDS011;31622;55.416;37.840;2024-01-11T06:07:45;11.98;;;2.15;;
45909;SDS011;31622;55.416;37.840;2024-01-11T06:10:10;2.72;;;1.58;;
45909;SDS011;31622;55.416;37.840;2024-01-11T06:12:36;3.83;;;1.73;;
45909;SDS011;31622;55.416;37.840;2024-01-11T06:15:02;5.13;;;2.47;;
45909;SDS011;31622;55.416;37.840;2024-01-11T06:17:28;6.70;;;3.38;;
45909;SDS011;31622;55.416;37.840;2024-01-11T06:19:54;6.78;;;3.63;;
45909;SDS011;31622;55.416;37.840;2024-01-11T06:22:20;7.80;;;4.68;;
45909;SDS011;31622;55.416;37.840;2024-01-11T06:24:46;8.13;;;4.75;;
45909;SDS011;31622;55.416;37.840;2024-01-11T06:27:12;8.05;;;5.10;;
45909;SDS011;31622;55.416;37.840;2024-01-11T06:29:37;7.45;;;4.90;;
45909;SDS011;31622;55.416;37.840;2024-01-11T06:32:04;8.52;;;5.40;;
45909;SDS011;31622;55.416;37.840;2024-01-11T06:34:30;8.57;;;5.43;;
45909;SDS011;31622;55.416;37.840;2024-01-11T06:36:56;32.97;;;7.00;;
45909;SDS011;31622;55.416;37.840;2024-01-11T06:39:21;30.95;;;6.68;;
45909;SDS011;31622;55.416;37.840;2024-01-11T06:41:47;17.50;;;6.80;;
45909;SDS011;31622;55.416;37.840;2024-01-11T06:44:13;16.38;;;6.25;;
45909;SDS011;31622;55.416;37.840;2024-01-11T06:46:39;10.52;;;5.95;;
45909;SDS011;31622;55.416;37.840;2024-01-11T06:49:09;15.15;;;5.95;;
45909;SDS011;31622;55.416;37.840;2024-01-11T06:51:35;17.63;;;6.00;;
45909;SDS011;31622;55.416;37.840;2024-01-11T06:54:01;8.75;;;5.90;;
45909;SDS011;31622;55.416;37.840;2024-01-11T06:56:27;13.48;;;5.75;;
45909;SDS011;31622;55.416;37.840;2024-01-11T06:58:53;10.50;;;6.13;;
45909;SDS011;31622;55.416;37.840;2024-01-11T07:01:20;9.48;;;5.90;;
45909;SDS011;31622;55.416;37.840;2024-01-11T07:03:45;11.57;;;5.93;;
45909;SDS011;31622;55.416;37.840;2024-01-11T07:06:11;10.88;;;5.90;;
45909;SDS011;31622;55.416;37.840;2024-01-11T07:08:37;9.70;;;6.15;;
45909;SDS011;31622;55.416;37.840;2024-01-11T07:11:03;8.93;;;5.38;;
45909;SDS011;31622;55.416;37.840;2024-01-11T07:13:29;8.73;;;5.63;;
45909;SDS011;31622;55.416;37.840;2024-01-11T07:15:57;8.60;;;5.13;;
45909;SDS011;31622;55.416;37.840;2024-01-11T07:18:23;8.50;;;5.13;;
45909;SDS011;31622;55.416;37.840;2024-01-11T07:20:50;8.00;;;4.72;;
45909;SDS011;31622;55.416;37.840;2024-01-11T07:23:17;8.85;;;4.90;;
45909;SDS011;31622;55.416;37.840;2024-01-11T07:25:42;8.60;;;4.22;;
45909;SDS011;31622;55.416;37.840;2024-01-11T07:28:08;8.65;;;4.40;;
45909;SDS011;31622;55.416;37.840;2024-01-11T07:30:34;9.95;;;5.78;;
45909;SDS011;31622;55.416;37.840;2024-01-11T07:33:00;13.98;;;6.40;;
45909;SDS011;31622;55.416;37.840;2024-01-11T07:35:27;11.98;;;6.60;;
45909;SDS011;31622;55.416;37.840;2024-01-11T07:37:52;20.75;;;7.90;;
45909;SDS011;31622;55.416;37.840;2024-01-11T07:40:19;19.23;;;7.22;;
45909;SDS011;31622;55.416;37.840;2024-01-11T07:42:44;20.77;;;8.30;;
45909;SDS011;31622;55.416;37.840;2024-01-11T07:45:11;20.13;;;8.35;;
45909;SDS011;31622;55.416;37.840;2024-01-11T07:47:37;20.27;;;8.38;;
45909;SDS011;31622;55.416;37.840;2024-01-11T07:50:03;21.83;;;8.35;;
45909;SDS011;31622;55.416;37.840;2024-01-11T07:52:33;20.17;;;7.90;;
45909;SDS011;31622;55.416;37.840;2024-01-11T07:54:58;21.95;;;9.00;;
45909;SDS011;31622;55.416;37.840;2024-01-11T07:57:35;19.95;;;9.25;;
45909;SDS011;31622;55.416;37.840;2024-01-11T08:00:02;24.15;;;7.82;;
45909;SDS011;31622;55.416;37.840;2024-01-11T08:02:39;22.85;;;8.00;;
45909;SDS011;31622;55.416;37.840;2024-01-11T08:05:05;16.08;;;7.55;;
45909;SDS011;31622;55.416;37.840;2024-01-11T08:07:31;17.55;;;7.82;;
45909;SDS011;31622;55.416;37.840;2024-01-11T08:09:57;19.15;;;6.88;;
45909;SDS011;31622;55.416;37.840;2024-01-11T08:12:23;15.45;;;6.82;;
45909;SDS011;31622;55.416;37.840;2024-01-11T08:14:49;21.40;;;7.75;;
45909;SDS011;31622;55.416;37.840;2024-01-11T08:17:14;14.15;;;6.72;;
45909;SDS011;31622;55.416;37.840;2024-01-11T08:19:40;16.25;;;7.03;;
45909;SDS011;31622;55.416;37.840;2024-01-11T08:22:08;13.20;;;6.07;;
45909;SDS011;31622;55.416;37.840;2024-01-11T08:24:35;12.25;;;6.00;;
45909;SDS011;31622;55.416;37.840;2024-01-11T08:27:01;16.70;;;7.00;;
45909;SDS011;31622;55.416;37.840;2024-01-11T08:29:26;12.70;;;6.15;;
45909;SDS011;31622;55.416;37.840;2024-01-11T08:31:53;15.95;;;5.93;;
45909;SDS011;31622;55.416;37.840;2024-01-11T08:34:20;13.32;;;5.82;;
45909;SDS011;31622;55.416;37.840;2024-01-11T08:36:46;14.77;;;5.95;;
45909;SDS011;31622;55.416;37.840;2024-01-11T08:39:13;13.52;;;5.30;;
45909;SDS011;31622;55.416;37.840;2024-01-11T08:41:40;13.82;;;5.78;;
45909;SDS011;31622;55.416;37.840;2024-01-11T08:44:06;11.98;;;4.88;;
45909;SDS011;31622;55.416;37.840;2024-01-11T08:46:31;11.00;;;5.05;;
45909;SDS011;31622;55.416;37.840;2024-01-11T08:49:00;24.35;;;5.43;;
45909;SDS011;31622;55.416;37.840;2024-01-11T08:51:28;16.45;;;5.50;;
45909;SDS011;31622;55.416;37.840;2024-01-11T08:53:55;18.55;;;4.72;;
45909;SDS011;31622;55.416;37.840;2024-01-11T08:56:21;12.57;;;4.50;;
45909;SDS011;31622;55.416;37.840;2024-01-11T08:58:47;14.63;;;4.57;;
45909;SDS011;31622;55.416;37.840;2024-01-11T09:01:16;12.63;;;4.55;;
45909;SDS011;31622;55.416;37.840;2024-01-11T09:03:45;12.40;;;4.45;;
45909;SDS011;31622;55.416;37.840;2024-01-11T09:06:13;8.40;;;3.83;;
45909;SDS011;31622;55.416;37.840;2024-01-11T09:08:39;7.93;;;3.60;;
45909;SDS011;31622;55.416;37.840;2024-01-11T09:11:06;8.88;;;4.05;;
45909;SDS011;31622;55.416;37.840;2024-01-11T09:13:32;10.15;;;3.70;;
45909;SDS011;31622;55.416;37.840;2024-01-11T09:15:58;10.18;;;4.38;;
45909;SDS011;31622;55.416;37.840;2024-01-11T09:18:23;7.53;;;3.20;;
45909;SDS011;31622;55.416;37.840;2024-01-11T09:20:49;7.60;;;3.30;;
45909;SDS011;31622;55.416;37.840;2024-01-11T09:23:15;12.77;;;3.75;;
45909;SDS011;31622;55.416;37.840;2024-01-11T09:25:43;7.07;;;2.95;;
45909;SDS011;31622;55.416;37.840;2024-01-11T09:28:08;6.18;;;2.83;;
45909;SDS011;31622;55.416;37.840;2024-01-11T09:30:34;8.60;;;3.75;;
45909;SDS011;31622;55.416;37.840;2024-01-11T09:33:00;6.78;;;2.90;;
45909;SDS011;31622;55.416;37.840;2024-01-11T09:35:26;7.90;;;3.13;;
45909;SDS011;31622;55.416;37.840;2024-01-11T09:37:52;8.00;;;2.90;;
45909;SDS011;31622;55.416;37.840;2024-01-11T09:40:18;6.30;;;3.10;;
45909;SDS011;31622;55.416;37.840;2024-01-11T09:42:44;5.47;;;2.45;;
45909;SDS011;31622;55.416;37.840;2024-01-11T09:45:12;4.72;;;2.65;;
45909;SDS011;31622;55.416;37.840;2024-01-11T09:47:39;5.82;;;2.80;;
45909;SDS011;31622;55.416;37.840;2024-01-11T09:50:05;4.15;;;2.28;;
45909;SDS011;31622;55.416;37.840;2024-01-11T09:52:32;3.90;;;1.98;;
45909;SDS011;31622;55.416;37.840;2024-01-11T09:54:59;4.55;;;2.22;;
45909;SDS011;31622;55.416;37.840;2024-01-11T09:57:26;4.75;;;2.22;;
45909;SDS011;31622;55.416;37.840;2024-01-11T09:59:54;4.25;;;2.00;;
45909;SDS011;31622;55.416;37.840;2024-01-11T10:02:25;4.68;;;2.40;;
45909;SDS011;31622;55.416;37.840;2024-01-11T10:04:52;5.75;;;1.85;;
45909;SDS011;31622;55.416;37.840;2024-01-11T10:07:19;5.43;;;1.80;;
45909;SDS011;31622;55.416;37.840;2024-01-11T10:09:47;4.07;;;1.80;;
45909;SDS011;31622;55.416;37.840;2024-01-11T10:12:13;4.00;;;2.00;;
45909;SDS011;31622;55.416;37.840;2024-01-11T10:14:39;3.92;;;1.52;;
45909;SDS011;31622;55.416;37.840;2024-01-11T10:17:06;4.03;;;1.73;;
45909;SDS011;31622;55.416;37.840;2024-01-11T10:19:32;4.15;;;1.70;;
45909;SDS011;31622;55.416;37.840;2024-01-11T10:21:58;3.55;;;1.50;;
45909;SDS011;31622;55.416;37.840;2024-01-11T10:24:26;3.28;;;1.50;;
45909;SDS011;31622;55.416;37.840;2024-01-11T10:26:55;3.33;;;1.23;;
45909;SDS011;31622;55.416;37.840;2024-01-11T10:29:21;2.63;;;1.27;;
45909;SDS011;31622;55.416;37.840;2024-01-11T10:31:47;2.33;;;1.20;;
45909;SDS011;31622;55.416;37.840;2024-01-11T10:34:12;2.53;;;1.30;;
45909;SDS011;31622;55.416;37.840;2024-01-11T10:36:38;2.22;;;1.20;;
45909;SDS011;31622;55.416;37.840;2024-01-11T10:39:06;3.08;;;1.27;;
45909;SDS011;31622;55.416;37.840;2024-01-11T10:41:39;3.03;;;1.40;;
45909;SDS011;31622;55.416;37.840;2024-01-11T10:44:07;3.90;;;1.20;;
45909;SDS011;31622;55.416;37.840;2024-01-11T10:46:47;1.95;;;0.95;;
45909;SDS011;31622;55.416;37.840;2024-01-11T10:49:19;2.13;;;1.10;;
45909;SDS011;31622;55.416;37.840;2024-01-11T10:51:53;2.72;;;1.20;;
45909;SDS011;31622;55.416;37.840;2024-01-11T10:54:21;2.17;;;1.00;;
45909;SDS011;31622;55.416;37.840;2024-01-11T10:56:47;3.00;;;1.00;;
45909;SDS011;31622;55.416;37.840;2024-01-11T10:59:14;2.15;;;1.00;;
45909;SDS011;31622;55.416;37.840;2024-01-11T11:01:40;2.40;;;0.90;;
45909;SDS011;31622;55.416;37.840;2024-01-11T11:04:07;1.65;;;0.85;;
45909;SDS011;31622;55.416;37.840;2024-01-11T11:06:34;2.25;;;0.90;;
45909;SDS011;31622;55.416;37.840;2024-01-11T11:09:00;1.45;;;0.70;;
45909;SDS011;31622;55.416;37.840;2024-01-11T11:11:30;3.15;;;1.00;;
45909;SDS011;31622;55.416;37.840;2024-01-11T11:14:00;2.17;;;1.00;;
45909;SDS011;31622;55.416;37.840;2024-01-11T11:16:26;5.18;;;1.23;;
45909;SDS011;31622;55.416;37.840;2024-01-11T11:18:53;1.98;;;0.90;;
45909;SDS011;31622;55.416;37.840;2024-01-11T11:21:20;2.30;;;0.82;;
45909;SDS011;31622;55.416;37.840;2024-01-11T11:23:46;2.00;;;0.80;;
45909;SDS011;31622;55.416;37.840;2024-01-11T11:26:15;2.20;;;0.80;;
45909;SDS011;31622;55.416;37.840;2024-01-11T11:28:42;4.82;;;0.90;;
45909;SDS011;31622;55.416;37.840;2024-01-11T11:31:10;2.55;;;1.10;;
45909;SDS011;31622;55.416;37.840;2024-01-11T11:33:40;2.28;;;0.95;;
45909;SDS011;31622;55.416;37.840;2024-01-11T11:36:06;1.85;;;0.80;;
45909;SDS011;31622;55.416;37.840;2024-01-11T11:38:37;2.40;;;0.98;;
45909;SDS011;31622;55.416;37.840;2024-01-11T11:41:03;1.38;;;0.65;;
45909;SDS011;31622;55.416;37.840;2024-01-11T11:43:30;2.00;;;0.80;;
45909;SDS011;31622;55.416;37.840;2024-01-11T11:45:57;2.90;;;0.80;;
45909;SDS011;31622;55.416;37.840;2024-01-11T11:51:01;2.05;;;0.60;;
45909;SDS011;31622;55.416;37.840;2024-01-11T11:53:30;2.70;;;0.75;;
45909;SDS011;31622;55.416;37.840;2024-01-11T11:55:59;1.50;;;0.70;;
45909;SDS011;31622;55.416;37.840;2024-01-11T11:58:25;1.05;;;0.50;;
45909;SDS011;31622;55.416;37.840;2024-01-11T12:00:51;2.10;;;0.85;;
45909;SDS011;31622;55.416;37.840;2024-01-11T12:03:17;2.50;;;0.80;;
45909;SDS011;31622;55.416;37.840;2024-01-11T12:05:43;1.05;;;0.45;;
45909;SDS011;31622;55.416;37.840;2024-01-11T12:08:09;0.93;;;0.50;;
45909;SDS011;31622;55.416;37.840;2024-01-11T12:10:36;1.80;;;0.80;;
45909;SDS011;31622;55.416;37.840;2024-01-11T12:13:01;1.27;;;0.60;;
45909;SDS011;31622;55.416;37.840;2024-01-11T12:15:27;1.20;;;0.65;;
45909;SDS011;31622;55.416;37.840;2024-01-11T12:17:59;1.20;;;0.65;;
45909;SDS011;31622;55.416;37.840;2024-01-11T12:20:25;1.13;;;0.70;;
45909;SDS011;31622;55.416;37.840;2024-01-11T12:22:51;2.25;;;0.90;;
45909;SDS011;31622;55.416;37.840;2024-01-11T12:25:17;1.35;;;0.80;;
45909;SDS011;31622;55.416;37.840;2024-01-11T12:27:42;1.52;;;0.80;;
45909;SDS011;31622;55.416;37.840;2024-01-11T12:30:08;1.60;;;0.80;;
45909;SDS011;31622;55.416;37.840;2024-01-11T12:32:39;2.15;;;0.98;;
45909;SDS011;31622;55.416;37.840;2024-01-11T12:35:05;1.83;;;1.00;;
45909;SDS011;31622;55.416;37.840;2024-01-11T12:37:31;2.30;;;0.80;;
45909;SDS011;31622;55.416;37.840;2024-01-11T12:39:57;1.50;;;0.90;;
45909;SDS011;31622;55.416;37.840;2024-01-11T12:42:24;1.23;;;0.75;;
45909;SDS011;31622;55.416;37.840;2024-01-11T12:44:53;1.50;;;0.80;;
45909;SDS011;31622;55.416;37.840;2024-01-11T12:47:19;2.05;;;1.08;;
45909;SDS011;31622;55.416;37.840;2024-01-11T12:49:44;1.35;;;0.70;;
45909;SDS011;31622;55.416;37.840;2024-01-11T12:52:17;1.48;;;0.80;;
45909;SDS011;31622;55.416;37.840;2024-01-11T12:54:43;0.90;;;0.57;;
45909;SDS011;31622;55.416;37.840;2024-01-11T12:57:12;1.55;;;0.80;;
45909;SDS011;31622;55.416;37.840;2024-01-11T12:59:44;1.60;;;0.75;;
45909;SDS011;31622;55.416;37.840;2024-01-11T13:02:10;1.02;;;0.70;;
45909;SDS011;31622;55.416;37.840;2024-01-11T13:04:39;1.38;;;0.80;;
45909;SDS011;31622;55.416;37.840;2024-01-11T13:07:06;1.17;;;0.75;;
45909;SDS011;31622;55.416;37.840;2024-01-11T13:09:32;1.60;;;0.80;;
45909;SDS011;31622;55.416;37.840;2024-01-11T13:11:58;1.55;;;0.50;;
45909;SDS011;31622;55.416;37.840;2024-01-11T13:14:25;1.52;;;0.70;;
45909;SDS011;31622;55.416;37.840;2024-01-11T13:16:51;1.55;;;0.80;;
45909;SDS011;31622;55.416;37.840;2024-01-11T13:19:17;1.13;;;0.65;;
45909;SDS011;31622;55.416;37.840;2024-01-11T13:21:43;1.10;;;0.60;;
45909;SDS011;31622;55.416;37.840;2024-01-11T13:24:09;1.67;;;0.70;;
45909;SDS011;31622;55.416;37.840;2024-01-11T13:26:35;1.65;;;0.90;;
45909;SDS011;31622;55.416;37.840;2024-01-11T13:29:05;3.15;;;1.85;;
45909;SDS011;31622;55.416;37.840;2024-01-11T13:31:32;3.40;;;2.38;;
45909;SDS011;31622;55.416;37.840;2024-01-11T13:33:58;4.43;;;2.55;;
45909;SDS011;31622;55.416;37.840;2024-01-11T13:36:24;5.80;;;3.15;;
45909;SDS011;31622;55.416;37.840;2024-01-11T13:38:50;6.68;;;2.95;;
45909;SDS011;31622;55.416;37.840;2024-01-11T13:41:16;3.50;;;2.45;;
45909;SDS011;31622;55.416;37.840;2024-01-11T13:43:42;4.82;;;2.80;;
45909;SDS011;31622;55.416;37.840;2024-01-11T13:46:08;4.93;;;3.15;;
45909;SDS011;31622;55.416;37.840;2024-01-11T13:48:35;4.43;;;2.53;;
45909;SDS011;31622;55.416;37.840;2024-01-11T13:51:01;6.65;;;2.72;;
45909;SDS011;31622;55.416;37.840;2024-01-11T13:53:28;9.85;;;3.13;;
45909;SDS011;31622;55.416;37.840;2024-01-11T13:55:54;8.35;;;2.60;;
45909;SDS011;31622;55.416;37.840;2024-01-11T13:58:21;7.72;;;2.78;;
45909;SDS011;31622;55.416;37.840;2024-01-11T14:00:47;8.00;;;2.30;;
45909;SDS011;31622;55.416;37.840;2024-01-11T14:03:13;11.35;;;2.20;;
45909;SDS011;31622;55.416;37.840;2024-01-11T14:05:38;9.32;;;2.05;;
45909;SDS011;31622;55.416;37.840;2024-01-11T14:08:04;4.50;;;1.90;;
45909;SDS011;31622;55.416;37.840;2024-01-11T14:10:34;5.90;;;2.22;;
45909;SDS011;31622;55.416;37.840;2024-01-11T14:13:00;3.08;;;1.73;;
45909;SDS011;31622;55.416;37.840;2024-01-11T14:15:26;5.75;;;2.35;;
45909;SDS011;31622;55.416;37.840;2024-01-11T14:17:53;3.63;;;1.77;;
45909;SDS011;31622;55.416;37.840;2024-01-11T14:20:19;2.78;;;1.33;;
45909;SDS011;31622;55.416;37.840;2024-01-11T14:22:46;3.33;;;1.52;;
45909;SDS011;31622;55.416;37.840;2024-01-11T14:25:14;2.58;;;1.35;;
45909;SDS011;31622;55.416;37.840;2024-01-11T14:27:41;4.05;;;1.90;;
45909;SDS011;31622;55.416;37.840;2024-01-11T14:30:07;3.40;;;1.33;;
45909;SDS011;31622;55.416;37.840;2024-01-11T14:32:34;1.92;;;1.10;;